Time;durP1;ratioP1;P1;durP2;ratioP2;P2;SDS_P1;SDS_P2;PMS_P1;PMS_P2;Temp;Humidity;BMP_temperature;BMP_pressure;BME280_temperature;BME280_humidity;BME280_pressure;Samples;Min_cycle;Max_cycle;Signal;HPM_P1;HPM_P2
2024/01/08 00:02:16;;;;;;;10.00;4.60;;;-2.10;99.90;;;;;;5049360;22;20129;-68
2024/01/08 00:04:41;;;;;;;8.43;5.22;;;-2.10;99.90;;;;;;5033542;28;20041;-68
2024/01/08 00:07:07;;;;;;;9.93;5.30;;;-2.10;99.90;;;;;;5033401;28;20407;-68
2024/01/08 00:09:32;;;;;;;9.18;4.82;;;-2.10;99.90;;;;;;5034629;28;20112;-68
2024/01/08 00:11:58;;;;;;;9.63;5.13;;;-2.10;99.90;;;;;;5032742;28;20115;-68
2024/01/08 00:14:23;;;;;;;9.25;5.32;;;-2.10;99.90;;;;;;5033829;28;20045;-68
2024/01/08 00:16:49;;;;;;;7.20;4.60;;;-2.10;99.90;;;;;;5033573;28;21203;-68
2024/01/08 00:19:14;;;;;;;8.20;4.85;;;-2.10;99.90;;;;;;5033440;28;20124;-68
2024/01/08 00:21:41;;;;;;;7.63;4.75;;;-2.10;99.90;;;;;;5033327;28;20069;-68
2024/01/08 00:24:08;;;;;;;9.32;4.60;;;-2.10;99.90;;;;;;5033629;28;20072;-68
2024/01/08 00:26:33;;;;;;;6.93;4.72;;;-2.10;99.90;;;;;;5034132;28;20087;-68
2024/01/08 00:28:59;;;;;;;8.90;4.72;;;-2.10;99.90;;;;;;5032324;28;20045;-68
2024/01/08 00:31:24;;;;;;;9.05;5.30;;;-2.10;99.90;;;;;;5031552;28;20141;-68
2024/01/08 00:33:50;;;;;;;7.13;4.82;;;-2.20;99.90;;;;;;5031635;28;20033;-68
2024/01/08 00:36:15;;;;;;;7.68;4.82;;;-2.10;99.90;;;;;;5028288;28;20037;-68
2024/01/08 00:38:41;;;;;;;6.97;5.07;;;-2.20;99.90;;;;;;5031683;28;20046;-68
2024/01/08 00:41:07;;;;;;;9.88;5.05;;;-2.10;99.90;;;;;;5032701;28;20069;-68
2024/01/08 00:43:32;;;;;;;10.35;5.00;;;-2.10;99.90;;;;;;5033322;28;20506;-68
2024/01/08 00:45:58;;;;;;;10.70;5.43;;;-2.10;99.90;;;;;;5033197;28;20029;-68
2024/01/08 00:48:23;;;;;;;7.35;4.97;;;-2.10;99.90;;;;;;5032896;28;20041;-68
2024/01/08 00:50:51;;;;;;;6.85;4.35;;;-2.10;99.90;;;;;;5031953;28;20161;-68
2024/01/08 00:53:16;;;;;;;10.43;4.75;;;-2.10;99.90;;;;;;5031688;28;20116;-68
2024/01/08 00:55:42;;;;;;;8.38;4.97;;;-2.10;99.90;;;;;;5032363;28;20436;-68
2024/01/08 00:58:07;;;;;;;9.35;5.13;;;-2.10;99.90;;;;;;5032034;28;20140;-68
2024/01/08 01:00:33;;;;;;;8.32;4.50;;;-2.10;99.90;;;;;;5030974;28;20071;-68
2024/01/08 01:02:59;;;;;;;8.52;5.07;;;-2.00;99.90;;;;;;5033230;28;20045;-68
2024/01/08 01:05:24;;;;;;;9.63;5.22;;;-2.00;99.90;;;;;;5032502;28;20120;-68
2024/01/08 01:07:50;;;;;;;11.05;5.53;;;-2.00;99.90;;;;;;5032343;28;20034;-68
2024/01/08 01:10:15;;;;;;;9.70;5.70;;;-2.00;99.90;;;;;;5031855;28;20439;-68
2024/01/08 01:12:41;;;;;;;6.78;4.85;;;-1.90;99.90;;;;;;5031724;28;20029;-68
2024/01/08 01:15:07;;;;;;;11.85;5.45;;;-1.90;99.90;;;;;;5032363;28;20112;-68
2024/01/08 01:17:32;;;;;;;8.65;4.93;;;-1.90;99.90;;;;;;5030415;28;20108;-68
2024/01/08 01:19:58;;;;;;;9.75;5.20;;;-1.90;99.90;;;;;;5021478;28;20067;-68
2024/01/08 01:22:23;;;;;;;6.50;4.28;;;-1.80;99.90;;;;;;5026924;28;20045;-68
2024/01/08 01:24:49;;;;;;;10.52;5.55;;;-1.80;99.90;;;;;;5025371;28;20499;-68
2024/01/08 01:27:14;;;;;;;10.55;5.40;;;-1.80;99.90;;;;;;5027441;28;20449;-68
2024/01/08 01:29:40;;;;;;;10.70;5.00;;;-1.80;99.90;;;;;;5025658;28;20120;-68
2024/01/08 01:32:05;;;;;;;8.32;4.70;;;-1.80;99.90;;;;;;5026316;28;20037;-68
2024/01/08 01:34:31;;;;;;;9.75;5.00;;;-1.70;99.90;;;;;;5023965;28;20040;-68
2024/01/08 01:36:57;;;;;;;8.88;4.97;;;-1.70;99.90;;;;;;5029834;28;20041;-68
2024/01/08 01:39:22;;;;;;;9.32;5.07;;;-1.70;99.90;;;;;;5032293;28;20691;-68
2024/01/08 01:41:50;;;;;;;8.32;5.15;;;-1.70;99.90;;;;;;5031353;28;20045;-68
2024/01/08 01:44:16;;;;;;;7.88;5.38;;;-1.70;99.90;;;;;;5032192;28;20483;-68
2024/01/08 01:46:48;;;;;;;10.88;5.28;;;-1.70;99.90;;;;;;5032255;28;20099;-68
2024/01/08 01:49:19;;;;;;;8.93;5.13;;;-1.70;99.90;;;;;;5032533;28;20069;-68
2024/01/08 01:51:47;;;;;;;7.68;5.93;;;-1.70;99.90;;;;;;5031721;28;20037;-68
2024/01/08 01:54:20;;;;;;;9.57;5.43;;;-1.70;99.90;;;;;;5014352;28;20045;-68
2024/01/08 01:56:48;;;;;;;8.63;4.90;;;-1.60;99.90;;;;;;5013826;28;20520;-68
2024/01/08 01:59:16;;;;;;;6.78;5.35;;;-1.70;99.90;;;;;;5032369;28;20095;-68
2024/01/08 02:01:43;;;;;;;8.88;5.05;;;-1.60;99.90;;;;;;5031529;28;20554;-68
2024/01/08 02:04:09;;;;;;;12.00;5.43;;;-1.60;99.90;;;;;;5031740;28;20064;-68
2024/01/08 02:06:37;;;;;;;9.57;5.03;;;-1.60;99.90;;;;;;5031799;28;20181;-68
2024/01/08 02:09:03;;;;;;;9.43;5.40;;;-1.50;99.90;;;;;;5032468;28;20063;-68
2024/01/08 02:11:29;;;;;;;14.13;4.75;;;-1.50;99.90;;;;;;5031405;28;20380;-68
2024/01/08 02:13:54;;;;;;;9.68;4.78;;;-1.50;99.90;;;;;;5032020;28;20065;-68
2024/01/08 02:16:20;;;;;;;6.97;4.93;;;-1.50;99.90;;;;;;5031563;28;20517;-68
2024/01/08 02:18:46;;;;;;;7.55;4.20;;;-1.40;99.90;;;;;;5012973;28;20487;-68
2024/01/08 02:21:12;;;;;;;8.45;5.63;;;-1.40;99.90;;;;;;5030712;28;20084;-68
2024/01/08 02:23:37;;;;;;;10.25;5.03;;;-1.40;99.90;;;;;;5031569;28;20131;-68
2024/01/08 02:26:04;;;;;;;8.32;5.90;;;-1.40;99.90;;;;;;5031133;28;20559;-68
2024/01/08 02:28:29;;;;;;;9.77;5.57;;;-1.30;99.90;;;;;;5027849;28;20506;-68
2024/01/08 02:30:55;;;;;;;6.57;4.95;;;-1.30;99.90;;;;;;5030830;28;20033;-68
2024/01/08 02:33:21;;;;;;;13.35;6.60;;;-1.30;99.90;;;;;;5031539;28;20120;-68
2024/01/08 02:35:47;;;;;;;8.00;5.43;;;-1.30;99.90;;;;;;5031701;28;20531;-68
2024/01/08 02:38:12;;;;;;;10.43;6.07;;;-1.30;99.90;;;;;;5031154;28;20041;-68
2024/01/08 02:40:38;;;;;;;9.40;5.35;;;-1.30;99.90;;;;;;5031096;28;20046;-68
2024/01/08 02:43:03;;;;;;;8.73;5.53;;;-1.30;99.90;;;;;;5031276;28;20545;-68
2024/01/08 02:45:31;;;;;;;10.25;5.63;;;-1.30;99.90;;;;;;5031078;28;20045;-68
2024/01/08 02:47:56;;;;;;;9.00;5.30;;;-1.30;99.90;;;;;;5030777;28;20042;-68
2024/01/08 02:50:22;;;;;;;10.02;6.15;;;-1.30;99.90;;;;;;5030844;28;20120;-68
2024/01/08 02:52:48;;;;;;;10.95;5.68;;;-1.30;99.90;;;;;;5030962;28;20040;-68
2024/01/08 02:55:13;;;;;;;10.18;6.05;;;-1.30;99.90;;;;;;5031315;28;20088;-68
2024/01/08 02:57:39;;;;;;;9.80;5.35;;;-1.20;99.90;;;;;;5030618;28;20550;-68
2024/01/08 03:00:06;;;;;;;7.30;4.88;;;-1.30;99.90;;;;;;5031042;28;20128;-68
2024/01/08 03:02:33;;;;;;;9.00;5.25;;;-1.20;99.90;;;;;;5028733;28;20048;-68
2024/01/08 03:04:58;;;;;;;7.68;5.25;;;-1.20;99.90;;;;;;5030422;28;20121;-68
2024/01/08 03:07:24;;;;;;;12.07;5.95;;;-1.20;99.90;;;;;;5030005;28;20108;-68
2024/01/08 03:09:50;;;;;;;8.18;5.50;;;-1.20;99.90;;;;;;5013861;28;20153;-68
2024/01/08 03:12:15;;;;;;;9.05;5.90;;;-1.20;99.90;;;;;;5031165;28;20044;-68
2024/01/08 03:14:42;;;;;;;8.13;5.25;;;-1.20;99.90;;;;;;5031479;28;20521;-68
2024/01/08 03:17:08;;;;;;;10.48;6.35;;;-1.20;99.90;;;;;;5032477;28;20045;-68
2024/01/08 03:19:34;;;;;;;10.15;6.05;;;-1.10;99.90;;;;;;5039777;28;20120;-68
2024/01/08 03:22:01;;;;;;;12.35;6.57;;;-1.10;99.90;;;;;;5036293;28;20156;-68
2024/01/08 03:24:27;;;;;;;6.63;4.85;;;-1.10;99.90;;;;;;5035447;28;20083;-68
2024/01/08 03:26:52;;;;;;;8.75;4.82;;;-1.10;99.90;;;;;;5035050;28;20033;-68
2024/01/08 03:29:18;;;;;;;8.68;5.10;;;-1.10;99.90;;;;;;5034278;28;20037;-68
2024/01/08 03:31:44;;;;;;;9.60;5.65;;;-1.00;99.90;;;;;;5034370;28;20179;-68
2024/01/08 03:34:10;;;;;;;8.80;5.00;;;-1.10;99.90;;;;;;5034960;28;20037;-68
2024/01/08 03:36:35;;;;;;;9.32;5.78;;;-1.00;99.90;;;;;;5035138;28;20049;-68
2024/01/08 03:39:01;;;;;;;7.60;5.60;;;-1.00;99.90;;;;;;5034977;28;20400;-68
2024/01/08 03:41:27;;;;;;;8.07;5.85;;;-1.00;99.90;;;;;;5034345;28;20047;-68
2024/01/08 03:43:52;;;;;;;9.73;5.68;;;-0.90;99.90;;;;;;5034916;28;20038;-68
2024/01/08 03:46:18;;;;;;;12.30;5.63;;;-1.00;99.90;;;;;;5034321;28;20065;-68
2024/01/08 03:48:43;;;;;;;8.63;5.18;;;-0.90;99.90;;;;;;5033174;28;20547;-68
2024/01/08 03:51:09;;;;;;;12.63;5.20;;;-1.00;99.90;;;;;;5033882;28;20067;-68
2024/01/08 03:53:34;;;;;;;8.93;5.63;;;-1.00;99.90;;;;;;5033987;28;20168;-68
2024/01/08 03:56:00;;;;;;;10.65;6.30;;;-0.90;99.90;;;;;;5034210;28;20041;-68
2024/01/08 03:58:26;;;;;;;8.98;4.80;;;-1.00;99.90;;;;;;5033808;28;20037;-68
2024/01/08 04:00:53;;;;;;;9.20;5.13;;;-0.90;99.90;;;;;;5033277;28;20483;-68
2024/01/08 04:03:19;;;;;;;6.40;4.65;;;-0.90;99.90;;;;;;5030265;28;20049;-68
2024/01/08 04:05:45;;;;;;;9.77;4.90;;;-0.90;99.90;;;;;;5034133;28;20045;-68
2024/01/08 04:08:11;;;;;;;7.88;5.13;;;-0.90;99.90;;;;;;5033404;28;20738;-68
2024/01/08 04:10:37;;;;;;;9.23;5.15;;;-0.90;99.90;;;;;;5032251;28;20033;-68
2024/01/08 04:13:03;;;;;;;8.50;5.25;;;-0.90;99.90;;;;;;5033098;28;20042;-68
2024/01/08 04:15:29;;;;;;;13.90;6.28;;;-0.90;99.90;;;;;;5032818;28;20071;-68
2024/01/08 04:17:54;;;;;;;9.95;5.65;;;-0.90;99.90;;;;;;5032176;28;20041;-68
2024/01/08 04:20:20;;;;;;;8.35;5.00;;;-0.90;99.90;;;;;;5025498;28;20029;-68
2024/01/08 04:22:47;;;;;;;6.22;4.10;;;-0.90;99.90;;;;;;5034083;28;20047;-68
2024/01/08 04:25:13;;;;;;;6.05;4.50;;;-0.90;99.90;;;;;;5033629;28;20172;-68
2024/01/08 04:27:39;;;;;;;7.57;4.32;;;-0.90;99.90;;;;;;5033216;28;20124;-68
2024/01/08 04:30:05;;;;;;;8.25;4.35;;;-0.90;99.90;;;;;;5032999;28;20037;-68
2024/01/08 04:32:31;;;;;;;6.18;3.78;;;-0.90;99.90;;;;;;5033657;28;20041;-68
2024/01/08 04:34:56;;;;;;;5.57;4.22;;;-0.90;99.90;;;;;;5033548;28;20045;-68
2024/01/08 04:37:22;;;;;;;7.22;3.78;;;-0.90;99.90;;;;;;5033184;28;20116;-68
2024/01/08 04:39:47;;;;;;;6.43;4.30;;;-0.90;99.90;;;;;;5032875;28;20045;-68
2024/01/08 04:42:13;;;;;;;7.63;4.72;;;-0.90;99.90;;;;;;5033317;28;20471;-68
2024/01/08 04:44:38;;;;;;;6.50;3.70;;;-0.90;99.90;;;;;;5032968;28;20554;-68
2024/01/08 04:47:05;;;;;;;6.78;3.53;;;-0.90;99.90;;;;;;5032726;28;20037;-68
2024/01/08 04:49:30;;;;;;;4.22;3.35;;;-0.90;99.90;;;;;;5032845;28;20048;-68
2024/01/08 04:51:56;;;;;;;6.78;4.03;;;-0.90;99.90;;;;;;5032747;28;20041;-68
2024/01/08 04:54:21;;;;;;;5.03;3.67;;;-0.90;99.90;;;;;;5033336;28;20402;-68
2024/01/08 04:56:48;;;;;;;5.65;3.40;;;-0.90;99.90;;;;;;5032625;28;20502;-68
2024/01/08 04:59:13;;;;;;;5.43;3.40;;;-0.90;99.90;;;;;;5032739;28;20092;-68
2024/01/08 05:01:40;;;;;;;5.97;4.20;;;-0.90;99.90;;;;;;5024769;28;20065;-68
2024/01/08 05:04:05;;;;;;;7.15;4.35;;;-0.90;99.90;;;;;;5032879;28;20045;-68
2024/01/08 05:06:31;;;;;;;5.55;3.80;;;-0.90;99.90;;;;;;5030117;28;20087;-68
2024/01/08 05:08:57;;;;;;;4.82;3.45;;;-0.90;99.90;;;;;;5031989;28;20112;-68
2024/01/08 05:11:22;;;;;;;6.65;4.03;;;-0.90;99.90;;;;;;5031762;28;20042;-68
2024/01/08 05:13:48;;;;;;;5.97;3.92;;;-1.00;99.90;;;;;;5033039;28;20480;-68
2024/01/08 05:16:13;;;;;;;6.55;4.43;;;-1.00;99.90;;;;;;5032656;28;20036;-68
2024/01/08 05:18:40;;;;;;;5.70;3.60;;;-1.00;99.90;;;;;;5031368;28;20046;-68
2024/01/08 05:21:06;;;;;;;7.07;4.35;;;-1.00;99.90;;;;;;5031941;28;20125;-68
2024/01/08 05:23:33;;;;;;;6.70;4.07;;;-1.00;99.90;;;;;;5032916;28;20392;-68
2024/01/08 05:25:59;;;;;;;5.63;3.22;;;-1.00;99.90;;;;;;5032572;28;20552;-68
2024/01/08 05:28:28;;;;;;;7.50;3.72;;;-1.10;99.90;;;;;;5031133;28;20112;-68
2024/01/08 05:30:54;;;;;;;8.30;4.50;;;-1.10;99.90;;;;;;5028369;28;20042;-68
2024/01/08 05:33:20;;;;;;;9.38;4.25;;;-1.10;99.90;;;;;;5032593;28;20507;-68
2024/01/08 05:35:46;;;;;;;7.20;4.53;;;-1.10;99.90;;;;;;5032600;28;20041;-68
2024/01/08 05:38:12;;;;;;;7.93;4.03;;;-1.10;99.90;;;;;;5031848;28;20567;-68
2024/01/08 05:40:37;;;;;;;6.05;4.30;;;-1.10;99.90;;;;;;5031022;28;20410;-68
2024/01/08 05:43:03;;;;;;;10.40;4.55;;;-1.10;99.90;;;;;;5032223;28;20042;-68
2024/01/08 05:45:29;;;;;;;5.65;4.07;;;-1.10;99.90;;;;;;5032032;28;20056;-68
2024/01/08 05:47:55;;;;;;;6.60;3.83;;;-1.10;99.90;;;;;;5031611;28;20038;-68
2024/01/08 05:50:27;;;;;;;7.00;4.05;;;-1.10;99.90;;;;;;5031379;28;20044;-68
2024/01/08 05:52:54;;;;;;;6.63;4.63;;;-1.10;99.90;;;;;;5032139;28;20403;-68
2024/01/08 05:55:20;;;;;;;6.80;4.07;;;-1.20;99.90;;;;;;5031745;28;20041;-68
2024/01/08 05:57:45;;;;;;;5.82;4.07;;;-1.10;99.90;;;;;;5030963;28;20121;-68
2024/01/08 06:02:45;;;;;;;10.82;5.20;;;-1.10;99.90;;;;;;5004128;28;22123;-62
2024/01/08 06:05:11;;;;;;;8.30;5.00;;;-1.10;99.90;;;;;;5009671;28;20042;-62
2024/01/08 06:07:37;;;;;;;8.32;4.57;;;-1.20;99.90;;;;;;5010268;28;20038;-62
2024/01/08 06:12:30;;;;;;;8.05;5.15;;;-1.20;99.90;;;;;;5010848;28;20050;-61
2024/01/08 06:14:57;;;;;;;6.35;4.82;;;-1.20;99.90;;;;;;5012745;28;20046;-61
2024/01/08 06:17:22;;;;;;;8.95;4.68;;;-1.20;99.90;;;;;;4994739;28;20516;-61
2024/01/08 06:19:48;;;;;;;7.78;4.47;;;-1.20;99.90;;;;;;5012363;28;20073;-61
2024/01/08 06:22:17;;;;;;;9.20;5.60;;;-1.20;99.90;;;;;;5012490;28;20048;-61
2024/01/08 06:24:43;;;;;;;7.95;4.82;;;-1.20;99.90;;;;;;5012372;28;20117;-61
2024/01/08 06:27:09;;;;;;;6.35;3.90;;;-1.20;99.90;;;;;;5012297;28;20117;-60
2024/01/08 06:29:34;;;;;;;10.40;4.80;;;-1.20;99.90;;;;;;4994732;28;20052;-61
2024/01/08 06:32:00;;;;;;;7.43;4.60;;;-1.20;99.90;;;;;;4994683;28;20068;-60
2024/01/08 06:34:25;;;;;;;9.70;4.70;;;-1.20;99.90;;;;;;5012276;28;20108;-61
2024/01/08 06:36:51;;;;;;;8.02;4.35;;;-1.20;99.90;;;;;;5012289;28;20125;-60
2024/01/08 06:39:17;;;;;;;8.57;4.88;;;-1.20;99.90;;;;;;4994286;28;20056;-61
2024/01/08 06:41:43;;;;;;;10.02;5.32;;;-1.30;99.90;;;;;;5012100;28;20046;-61
2024/01/08 06:44:08;;;;;;;9.13;5.45;;;-1.30;99.90;;;;;;5012436;28;20042;-61
2024/01/08 06:46:34;;;;;;;11.82;5.72;;;-1.30;99.90;;;;;;4994431;28;20046;-60
2024/01/08 06:49:00;;;;;;;8.93;5.60;;;-1.20;99.90;;;;;;4994269;28;20034;-61
2024/01/08 06:51:25;;;;;;;11.65;6.07;;;-1.20;99.90;;;;;;5012322;28;20391;-61
2024/01/08 06:53:51;;;;;;;6.95;5.25;;;-1.20;99.90;;;;;;4998292;28;20041;-61
2024/01/08 06:56:16;;;;;;;7.68;4.95;;;-1.20;99.90;;;;;;5014894;28;20042;-61
2024/01/08 06:58:42;;;;;;;10.32;6.05;;;-1.30;99.90;;;;;;5015764;28;20112;-61
2024/01/08 07:01:08;;;;;;;8.70;5.45;;;-1.20;99.90;;;;;;5011681;28;20112;-61
2024/01/08 07:03:35;;;;;;;10.93;5.38;;;-1.20;99.90;;;;;;5015618;28;20502;-61
2024/01/08 07:06:01;;;;;;;8.18;4.90;;;-1.20;99.90;;;;;;5016028;28;20042;-61
2024/01/08 07:08:27;;;;;;;9.93;5.25;;;-1.20;99.90;;;;;;5015749;28;20042;-61
2024/01/08 07:10:52;;;;;;;7.57;4.82;;;-1.20;99.90;;;;;;5015811;28;20037;-61
2024/01/08 07:13:18;;;;;;;8.90;5.05;;;-1.20;99.90;;;;;;5015843;28;20113;-61
2024/01/08 07:15:47;;;;;;;9.00;4.70;;;-1.10;99.90;;;;;;5015875;28;20421;-61
2024/01/08 07:18:13;;;;;;;8.23;5.07;;;-1.20;99.90;;;;;;5014410;28;20056;-60
2024/01/08 07:20:39;;;;;;;8.10;4.85;;;-1.20;99.90;;;;;;5010702;28;20413;-61
2024/01/08 07:23:09;;;;;;;11.07;5.25;;;-1.10;99.90;;;;;;5034863;28;20041;-60
2024/01/08 07:25:36;;;;;;;7.53;4.47;;;-1.10;99.90;;;;;;5015225;28;20120;-61
2024/01/08 07:28:01;;;;;;;12.65;5.50;;;-1.10;99.90;;;;;;4997925;28;20080;-61
2024/01/08 07:30:27;;;;;;;10.73;5.55;;;-1.10;99.90;;;;;;4999443;28;20042;-61
2024/01/08 07:32:53;;;;;;;9.75;5.13;;;-1.10;99.90;;;;;;4995714;28;20261;-61
2024/01/08 07:35:18;;;;;;;10.32;4.93;;;-1.10;99.90;;;;;;4992604;28;20045;-61
2024/01/08 07:37:44;;;;;;;8.55;5.25;;;-1.10;99.90;;;;;;5015045;28;20042;-61
2024/01/08 07:40:10;;;;;;;14.32;4.80;;;-1.00;99.90;;;;;;4999007;28;20084;-61
2024/01/08 07:42:35;;;;;;;6.93;5.32;;;-1.00;99.90;;;;;;5015573;28;20103;-61
2024/01/08 07:45:01;;;;;;;9.60;4.68;;;-1.00;99.90;;;;;;4997765;28;20037;-61
2024/01/08 07:47:27;;;;;;;8.95;4.10;;;-1.00;99.90;;;;;;5014833;28;20076;-61
2024/01/08 07:49:53;;;;;;;7.75;4.20;;;-1.00;99.90;;;;;;5014862;28;20038;-60
2024/01/08 07:52:19;;;;;;;6.68;4.70;;;-1.00;99.90;;;;;;4997438;28;20046;-61
2024/01/08 07:54:44;;;;;;;6.72;4.20;;;-1.00;99.90;;;;;;5014779;28;20056;-61
2024/01/08 07:57:10;;;;;;;7.18;4.43;;;-1.00;99.90;;;;;;5014148;28;20056;-61
2024/01/08 07:59:36;;;;;;;8.13;4.55;;;-0.90;99.90;;;;;;5012335;28;20052;-61
2024/01/08 08:02:02;;;;;;;6.00;4.32;;;-0.90;99.90;;;;;;4991298;28;20049;-61
2024/01/08 08:04:28;;;;;;;7.00;4.30;;;-0.90;99.90;;;;;;5014764;28;20540;-61
2024/01/08 08:06:54;;;;;;;6.50;4.35;;;-0.90;99.90;;;;;;4997588;28;20042;-61
2024/01/08 08:09:20;;;;;;;6.45;4.03;;;-0.90;99.90;;;;;;5001564;28;20041;-60
2024/01/08 08:11:45;;;;;;;9.48;5.10;;;-0.90;99.90;;;;;;5014088;28;20044;-60
2024/01/08 08:14:12;;;;;;;9.00;4.13;;;-0.80;99.90;;;;;;5008994;28;20052;-61
2024/01/08 08:16:39;;;;;;;8.50;4.82;;;-0.90;99.90;;;;;;5006482;28;20045;-61
2024/01/08 08:19:04;;;;;;;9.73;4.85;;;-0.80;99.90;;;;;;5014347;28;20048;-60
2024/01/08 08:21:30;;;;;;;7.32;4.30;;;-0.80;99.90;;;;;;5014496;28;20448;-60
2024/01/08 08:23:57;;;;;;;8.25;4.28;;;-0.80;99.90;;;;;;5014545;28;20657;-61
2024/01/08 08:26:24;;;;;;;4.65;3.88;;;-0.80;99.90;;;;;;5014039;28;20050;-60
2024/01/08 08:28:49;;;;;;;5.68;4.05;;;-0.80;99.90;;;;;;5014551;28;20092;-60
2024/01/08 08:31:15;;;;;;;7.03;3.70;;;-0.70;99.90;;;;;;5014011;28;20506;-60
2024/01/08 08:33:42;;;;;;;7.50;4.03;;;-0.80;99.90;;;;;;5014399;28;20144;-60
2024/01/08 08:36:07;;;;;;;6.40;3.67;;;-0.70;99.90;;;;;;4996535;28;20046;-60
2024/01/08 08:38:34;;;;;;;7.55;3.95;;;-0.70;99.90;;;;;;5011110;28;20072;-61
2024/01/08 08:41:00;;;;;;;7.97;3.70;;;-0.70;99.90;;;;;;5012658;28;20434;-61
2024/01/08 08:43:26;;;;;;;5.97;3.88;;;-0.70;99.90;;;;;;5014280;28;20057;-61
2024/01/08 08:45:51;;;;;;;4.95;4.10;;;-0.70;99.90;;;;;;5014123;28;20056;-61
2024/01/08 08:48:18;;;;;;;6.63;4.20;;;-0.60;99.90;;;;;;5013861;28;20042;-61
2024/01/08 08:50:44;;;;;;;5.30;3.50;;;-0.60;99.90;;;;;;4994674;28;20045;-61
2024/01/08 08:53:09;;;;;;;5.38;3.28;;;-0.60;99.90;;;;;;4993164;28;20042;-61
2024/01/08 08:55:35;;;;;;;6.28;4.30;;;-0.60;99.90;;;;;;5012262;28;20045;-61
2024/01/08 08:58:01;;;;;;;7.18;4.18;;;-0.60;99.90;;;;;;5013601;28;20520;-61
2024/01/08 09:00:26;;;;;;;6.20;3.80;;;-0.50;99.90;;;;;;5013405;28;20514;-61
2024/01/08 09:02:52;;;;;;;5.97;3.40;;;-0.50;99.90;;;;;;5012708;28;20041;-60
2024/01/08 09:05:18;;;;;;;6.35;3.42;;;-0.50;99.90;;;;;;5013705;28;20088;-61
2024/01/08 09:07:43;;;;;;;5.13;3.60;;;-0.50;99.90;;;;;;5013563;28;20082;-61
2024/01/08 09:10:09;;;;;;;4.93;3.58;;;-0.50;99.90;;;;;;5013219;28;20052;-61
2024/01/08 09:12:34;;;;;;;4.97;4.00;;;-0.50;99.90;;;;;;4996350;28;20046;-58
2024/01/08 09:15:00;;;;;;;6.65;4.20;;;-0.50;99.90;;;;;;5012567;28;20045;-58
2024/01/08 09:17:27;;;;;;;10.65;4.82;;;-0.40;99.90;;;;;;4996023;28;20053;-59
2024/01/08 09:19:53;;;;;;;6.72;3.88;;;-0.40;99.90;;;;;;4995989;28;20517;-58
2024/01/08 09:22:19;;;;;;;4.63;3.65;;;-0.50;99.90;;;;;;5013352;28;20038;-59
2024/01/08 09:24:44;;;;;;;7.00;4.03;;;-0.50;99.90;;;;;;4976266;28;20047;-59
2024/01/08 09:27:10;;;;;;;5.75;3.58;;;-0.50;99.90;;;;;;4993705;28;20038;-59
2024/01/08 09:29:36;;;;;;;5.78;4.05;;;-0.40;99.90;;;;;;4992419;28;20065;-59
2024/01/08 09:32:01;;;;;;;7.35;4.30;;;-0.40;99.90;;;;;;4993273;28;20085;-59
2024/01/08 09:34:27;;;;;;;7.70;4.15;;;-0.40;99.90;;;;;;4994293;28;20046;-59
2024/01/08 09:36:52;;;;;;;4.97;3.47;;;-0.50;99.90;;;;;;4995360;28;20112;-59
2024/01/08 09:39:18;;;;;;;5.60;3.53;;;-0.40;99.90;;;;;;5012776;28;20064;-58
2024/01/08 09:41:48;;;;;;;4.55;3.67;;;-0.40;99.90;;;;;;5003231;28;20039;-58
2024/01/08 09:44:14;;;;;;;5.93;4.07;;;-0.40;99.90;;;;;;4993483;28;20477;-58
2024/01/08 09:46:47;;;;;;;6.80;4.55;;;-0.40;99.90;;;;;;4993431;28;20483;-57
2024/01/08 09:49:14;;;;;;;4.32;3.40;;;-0.40;99.90;;;;;;4976183;28;20070;-58
2024/01/08 09:51:41;;;;;;;5.10;3.83;;;-0.40;99.90;;;;;;4993364;28;20101;-59
2024/01/08 09:54:07;;;;;;;7.60;4.20;;;-0.30;99.90;;;;;;4993411;28;20096;-58
2024/01/08 09:56:33;;;;;;;6.68;4.15;;;-0.30;99.90;;;;;;4975593;28;20085;-60
2024/01/08 09:58:59;;;;;;;7.57;3.95;;;-0.30;99.90;;;;;;4993002;28;20498;-59
2024/01/08 10:01:25;;;;;;;9.50;4.88;;;-0.30;99.90;;;;;;4975324;28;20041;-59
2024/01/08 10:03:52;;;;;;;4.20;3.13;;;-0.30;99.90;;;;;;4975397;28;20046;-59
2024/01/08 10:06:18;;;;;;;5.38;3.97;;;-0.30;99.90;;;;;;5004209;28;20089;-61
2024/01/08 10:08:43;;;;;;;6.80;4.35;;;-0.20;99.90;;;;;;5012535;28;20073;-61
2024/01/08 10:11:12;;;;;;;7.65;3.83;;;-0.20;99.90;;;;;;5010856;28;20046;-61
2024/01/08 10:13:40;;;;;;;5.65;3.75;;;-0.20;99.90;;;;;;5012547;28;20471;-61
2024/01/08 10:16:05;;;;;;;6.20;3.90;;;-0.20;99.90;;;;;;5011191;28;20552;-62
2024/01/08 10:18:31;;;;;;;8.00;3.88;;;-0.20;99.90;;;;;;5012767;28;20045;-62
2024/01/08 10:21:17;;;;;;;6.88;4.28;;;-0.20;99.90;;;;;;5010867;28;20100;-62
2024/01/08 10:23:43;;;;;;;7.88;4.10;;;-0.20;99.90;;;;;;5011077;28;20048;-62
2024/01/08 10:26:14;;;;;;;5.45;3.72;;;-0.20;99.90;;;;;;5011919;28;20089;-61
2024/01/08 10:28:40;;;;;;;6.70;4.15;;;-0.20;99.90;;;;;;5012514;28;20046;-61
2024/01/08 10:31:08;;;;;;;7.22;4.15;;;-0.20;99.90;;;;;;5010663;28;20180;-62
2024/01/08 10:33:34;;;;;;;5.63;4.07;;;-0.20;99.90;;;;;;5010874;28;20049;-62
2024/01/08 10:36:01;;;;;;;7.85;4.53;;;-0.20;99.90;;;;;;5011054;28;20053;-61
2024/01/08 10:38:33;;;;;;;5.13;4.15;;;-0.20;99.90;;;;;;5010794;28;20116;-62
2024/01/08 10:41:02;;;;;;;6.30;3.67;;;-0.20;99.90;;;;;;5011968;28;20049;-62
2024/01/08 10:43:28;;;;;;;8.48;3.40;;;-0.10;99.90;;;;;;5012364;28;20048;-61
2024/01/08 10:46:00;;;;;;;8.00;3.70;;;-0.20;99.90;;;;;;5010737;28;20046;-62
2024/01/08 10:48:40;;;;;;;9.73;4.50;;;-0.20;99.90;;;;;;5012341;28;20050;-61
2024/01/08 10:51:08;;;;;;;5.50;3.95;;;-0.10;99.90;;;;;;5012021;28;20045;-62
2024/01/08 10:53:47;;;;;;;8.65;3.88;;;-0.10;99.90;;;;;;5010967;28;20147;-62
2024/01/08 10:56:20;;;;;;;8.73;4.80;;;-0.10;99.90;;;;;;5010759;28;20057;-62
2024/01/08 10:59:22;;;;;;;6.55;4.50;;;0.00;99.90;;;;;;5010984;28;20517;-62
2024/01/08 11:01:48;;;;;;;5.03;3.72;;;0.10;99.90;;;;;;5008364;28;20514;-62
2024/01/08 11:04:14;;;;;;;8.32;3.97;;;0.10;99.90;;;;;;5010462;28;20054;-61
2024/01/08 11:06:42;;;;;;;5.95;3.75;;;0.10;99.90;;;;;;5010482;28;20109;-62
2024/01/08 11:09:29;;;;;;;8.18;4.35;;;0.10;99.90;;;;;;5010599;28;20040;-61
2024/01/08 11:11:55;;;;;;;6.75;3.80;;;0.00;99.90;;;;;;5010924;28;20490;-62
2024/01/08 11:14:22;;;;;;;7.20;3.50;;;0.10;99.90;;;;;;5010576;28;20120;-62
2024/01/08 11:16:48;;;;;;;5.35;4.13;;;0.10;99.90;;;;;;5010565;28;20627;-63
2024/01/08 11:19:17;;;;;;;5.00;3.60;;;0.20;99.90;;;;;;5010512;28;20042;-61
2024/01/08 11:21:43;;;;;;;8.07;4.25;;;0.20;99.90;;;;;;5011859;28;20509;-62
2024/01/08 11:24:09;;;;;;;8.27;4.28;;;0.30;99.90;;;;;;5010400;28;20053;-62
2024/01/08 11:26:43;;;;;;;8.98;4.18;;;0.40;99.90;;;;;;5011900;28;20402;-61
2024/01/08 11:29:09;;;;;;;5.93;4.25;;;0.50;99.90;;;;;;5011948;28;20034;-62
2024/01/08 11:31:51;;;;;;;4.60;3.40;;;0.70;99.90;;;;;;5011876;28;20069;-62
2024/01/08 11:34:56;;;;;;;6.78;4.10;;;0.70;99.90;;;;;;5010591;28;20053;-62
2024/01/08 11:37:38;;;;;;;6.05;3.88;;;0.70;99.90;;;;;;5010725;28;20124;-61
2024/01/08 11:40:16;;;;;;;6.93;4.05;;;0.90;99.90;;;;;;5015416;28;20045;-61
2024/01/08 11:42:45;;;;;;;7.22;3.30;;;0.90;99.90;;;;;;5015236;28;20038;-62
2024/01/08 11:45:11;;;;;;;8.65;4.63;;;0.90;99.90;;;;;;5013893;28;20070;-62
2024/01/08 11:47:37;;;;;;;7.03;3.85;;;0.90;99.90;;;;;;5014803;28;20077;-61
2024/01/08 11:50:04;;;;;;;7.25;4.15;;;0.90;99.90;;;;;;5013595;28;20120;-63
2024/01/08 11:52:32;;;;;;;6.03;3.95;;;0.90;99.90;;;;;;5015096;28;20049;-63
2024/01/08 11:54:57;;;;;;;5.75;4.13;;;0.90;99.90;;;;;;5014750;28;20046;-62
2024/01/08 11:57:24;;;;;;;6.80;4.32;;;1.00;99.90;;;;;;5014915;28;20049;-62
2024/01/08 11:59:50;;;;;;;8.13;4.68;;;1.10;99.90;;;;;;4997135;28;20107;-63
2024/01/08 12:02:18;;;;;;;5.80;4.18;;;1.10;99.90;;;;;;5014879;28;20512;-62
2024/01/08 12:05:04;;;;;;;6.13;3.95;;;1.10;99.90;;;;;;4997140;28;20078;-63
2024/01/08 12:07:31;;;;;;;6.25;4.32;;;1.20;99.90;;;;;;4996820;28;20065;-63
2024/01/08 12:10:02;;;;;;;6.32;4.70;;;1.30;99.90;;;;;;5014554;28;20046;-64
2024/01/08 12:12:28;;;;;;;6.37;4.37;;;1.30;99.90;;;;;;5060412;22;20050;-70
2024/01/08 12:14:54;;;;;;;6.28;3.72;;;1.30;99.90;;;;;;5012282;28;20061;-70
2024/01/08 12:17:20;;;;;;;6.10;4.50;;;1.20;99.90;;;;;;5008188;28;20072;-70
2024/01/08 12:19:57;;;;;;;7.13;4.18;;;1.20;99.90;;;;;;5014720;28;20045;-71
2024/01/08 12:22:24;;;;;;;4.85;4.38;;;1.20;99.90;;;;;;5014591;28;20037;-71
2024/01/08 12:24:52;;;;;;;7.88;4.10;;;1.20;99.90;;;;;;5014113;28;20642;-70
2024/01/08 12:27:21;;;;;;;6.43;4.18;;;1.30;99.90;;;;;;5011017;28;20106;-71
2024/01/08 12:29:49;;;;;;;7.43;4.32;;;1.40;99.90;;;;;;5013088;28;20045;-71
2024/01/08 12:32:19;;;;;;;7.13;4.00;;;1.30;99.90;;;;;;5008984;28;20034;-71
2024/01/08 12:34:45;;;;;;;7.13;3.33;;;1.30;99.90;;;;;;5011079;28;20041;-71
2024/01/08 12:37:12;;;;;;;4.45;3.33;;;1.20;99.90;;;;;;5009172;28;20045;-71
2024/01/08 12:39:38;;;;;;;6.68;3.95;;;1.10;99.90;;;;;;5012060;28;20038;-71
2024/01/08 12:42:10;;;;;;;7.05;4.20;;;1.10;99.90;;;;;;5012112;28;20088;-71
2024/01/08 12:44:36;;;;;;;5.60;3.63;;;1.00;99.90;;;;;;5012945;28;20030;-71
2024/01/08 12:47:04;;;;;;;5.93;3.72;;;1.00;99.90;;;;;;5013654;28;20084;-71
2024/01/08 12:49:31;;;;;;;7.05;4.20;;;0.90;99.90;;;;;;5011400;28;20107;-71
2024/01/08 12:51:58;;;;;;;5.28;3.95;;;0.90;99.90;;;;;;4991696;28;20091;-71